LEXJ/SDR METAR and TAF weather

Enter ICAO airport designator
Station Type Date Time Source
LEXJ METAR 2020/07/06 08:30 UTC NOAA

LEXJ 060830Z 05006KT 350V100 3000 -RA BKN016 OVC020 18/18 Q1025


Station Type Date Time Source
LEXJ Decoded METAR 2020/07/06 08:30 UTC NOAA

Santander / Parayas, Spain (LEXJ) 43-26N 003-49W 9M
Jul 06, 2020 - 04:30 AM EDT / 2020.07.06 0830 UTC
Wind: from the NE (050 degrees) at 7 MPH (6 KT) (direction variable):0
Visibility: 1 mile(s):0
Sky conditions: overcast
Weather: light rain
Temperature: 64 F (18 C)
Dew Point: 64 F (18 C)
Relative Humidity: 100%
Pressure (altimeter): 30.27 in. Hg (1025 hPa)
ob: LEXJ 060830Z 05006KT 350V100 3000 -RA BKN016 OVC020 18/18 Q1025
cycle: 8

Station Type Date Time Source
LEXJ TAF 2020/07/06 09:27 UTC NOAA

TAF TAF LEXJ 060800Z 0609/0709 04008KT 9000 SCT010 BKN020 TX21/0615Z TN11/0705Z
TEMPO 0609/0614 BKN014
TEMPO 0609/0613 4000 DZ BR BKN010 PROB30
TEMPO 0609/0611 1800 RA BCFG BKN005

Example: see airport list